sensor_id;sensor_type;location;lat;lon;timestamp;pressure;altitude;pressure_sealevel;temperature;humidity
68226;BME280;55045;49.410;11.030;2024-02-14T00:00:44;98548.09;;;2.32;100.00
68226;BME280;55045;49.410;11.030;2024-02-14T00:03:48;98548.09;;;2.32;100.00
68226;BME280;55045;49.410;11.030;2024-02-14T00:06:53;98541.38;;;2.25;100.00
68226;BME280;55045;49.410;11.030;2024-02-14T00:09:57;98545.53;;;2.32;100.00
68226;BME280;55045;49.410;11.030;2024-02-14T00:13:01;98542.13;;;2.31;100.00
68226;BME280;55045;49.410;11.030;2024-02-14T00:16:06;98548.97;;;2.31;100.00
68226;BME280;55045;49.410;11.030;2024-02-14T00:19:10;98548.91;;;2.39;100.00
68226;BME280;55045;49.410;11.030;2024-02-14T00:22:15;98549.00;;;2.29;100.00
68226;BME280;55045;49.410;11.030;2024-02-14T00:25:21;98543.06;;;2.26;100.00
68226;BME280;55045;49.410;11.030;2024-02-14T00:28:25;98542.16;;;2.30;100.00
68226;BME280;55045;49.410;11.030;2024-02-14T00:31:30;98538.78;;;2.26;100.00
68226;BME280;55045;49.410;11.030;2024-02-14T00:34:49;98538.81;;;2.25;100.00
68226;BME280;55045;49.410;11.030;2024-02-14T00:37:56;98548.19;;;2.26;100.00
68226;BME280;55045;49.410;11.030;2024-02-14T00:41:00;98541.38;;;2.22;100.00
68226;BME280;55045;49.410;11.030;2024-02-14T00:44:04;98548.22;;;2.20;100.00
68226;BME280;55045;49.410;11.030;2024-02-14T00:47:07;98548.25;;;2.14;100.00
68226;BME280;55045;49.410;11.030;2024-02-14T00:50:13;98547.41;;;2.12;100.00
68226;BME280;55045;49.410;11.030;2024-02-14T00:53:18;98549.97;;;2.16;100.00
68226;BME280;55045;49.410;11.030;2024-02-14T00:56:24;98543.16;;;2.15;100.00
68226;BME280;55045;49.410;11.030;2024-02-14T00:59:28;98547.41;;;2.16;100.00
68226;BME280;55045;49.410;11.030;2024-02-14T01:02:31;98551.66;;;2.13;100.00
68226;BME280;55045;49.410;11.030;2024-02-14T01:05:37;98548.25;;;2.17;100.00
68226;BME280;55045;49.410;11.030;2024-02-14T01:08:43;98549.94;;;2.18;100.00
68226;BME280;55045;49.410;11.030;2024-02-14T01:11:48;98555.09;;;2.10;100.00
68226;BME280;55045;49.410;11.030;2024-02-14T01:14:53;98554.22;;;2.16;100.00
68226;BME280;55045;49.410;11.030;2024-02-14T01:17:57;98558.47;;;2.18;100.00
68226;BME280;55045;49.410;11.030;2024-02-14T01:21:01;98558.50;;;2.11;100.00
68226;BME280;55045;49.410;11.030;2024-02-14T01:24:07;98557.59;;;2.21;100.00
68226;BME280;55045;49.410;11.030;2024-02-14T01:27:11;98555.91;;;2.18;100.00
68226;BME280;55045;49.410;11.030;2024-02-14T01:30:15;98548.25;;;2.14;100.00
68226;BME280;55045;49.410;11.030;2024-02-14T01:33:19;98554.16;;;2.23;100.00
68226;BME280;55045;49.410;11.030;2024-02-14T01:36:24;98541.44;;;2.16;100.00
68226;BME280;55045;49.410;11.030;2024-02-14T01:39:29;98553.28;;;2.26;100.00
68226;BME280;55045;49.410;11.030;2024-02-14T01:42:33;98552.50;;;2.18;100.00
68226;BME280;55045;49.410;11.030;2024-02-14T01:45:39;98548.25;;;2.17;100.00
68226;BME280;55045;49.410;11.030;2024-02-14T01:48:48;98546.47;;;2.25;100.00
68226;BME280;55045;49.410;11.030;2024-02-14T01:51:52;98543.06;;;2.26;100.00
68226;BME280;55045;49.410;11.030;2024-02-14T01:54:58;98545.63;;;2.21;100.00
68226;BME280;55045;49.410;11.030;2024-02-14T01:58:02;98540.47;;;2.24;100.00
68226;BME280;55045;49.410;11.030;2024-02-14T02:01:09;98545.59;;;2.27;100.00
68226;BME280;55045;49.410;11.030;2024-02-14T02:04:12;98541.38;;;2.25;100.00
68226;BME280;55045;49.410;11.030;2024-02-14T02:07:16;98535.44;;;2.18;100.00
68226;BME280;55045;49.410;11.030;2024-02-14T02:10:23;98526.91;;;2.18;100.00
68226;BME280;55045;49.410;11.030;2024-02-14T02:13:48;98517.53;;;2.18;100.00
68226;BME280;55045;49.410;11.030;2024-02-14T02:17:11;98516.69;;;2.13;100.00
68226;BME280;55045;49.410;11.030;2024-02-14T02:20:35;98524.38;;;2.15;100.00
68226;BME280;55045;49.410;11.030;2024-02-14T02:23:42;98516.72;;;2.15;100.00
68226;BME280;55045;49.410;11.030;2024-02-14T02:26:47;98526.00;;;2.22;100.00
68226;BME280;55045;49.410;11.030;2024-02-14T02:30:13;98522.63;;;2.20;100.00
68226;BME280;55045;49.410;11.030;2024-02-14T02:33:17;98512.34;;;2.26;100.00
68226;BME280;55045;49.410;11.030;2024-02-14T02:36:21;98518.31;;;2.23;100.00
68226;BME280;55045;49.410;11.030;2024-02-14T02:39:47;98514.91;;;2.26;100.00
68226;BME280;55045;49.410;11.030;2024-02-14T02:43:12;98514.91;;;2.26;100.00
68226;BME280;55045;49.410;11.030;2024-02-14T02:46:35;98513.97;;;2.36;100.00
68226;BME280;55045;49.410;11.030;2024-02-14T02:50:08;98520.00;;;2.24;100.00
68226;BME280;55045;49.410;11.030;2024-02-14T02:53:32;98514.88;;;2.27;100.00
68226;BME280;55045;49.410;11.030;2024-02-14T02:56:58;98509.81;;;2.21;100.00
68226;BME280;55045;49.410;11.030;2024-02-14T03:00:07;98495.41;;;2.10;100.00
68226;BME280;55045;49.410;11.030;2024-02-14T03:03:20;98505.59;;;2.14;100.00
68226;BME280;55045;49.410;11.030;2024-02-14T03:06:39;98513.31;;;2.11;100.00
68226;BME280;55045;49.410;11.030;2024-02-14T03:09:57;98509.88;;;2.17;100.00
68226;BME280;55045;49.410;11.030;2024-02-14T03:13:22;98514.09;;;2.21;100.00
68226;BME280;55045;49.410;11.030;2024-02-14T03:16:47;98513.19;;;2.28;100.00
68226;BME280;55045;49.410;11.030;2024-02-14T03:19:51;98508.03;;;2.31;100.00
68226;BME280;55045;49.410;11.030;2024-02-14T03:22:55;98455.34;;;2.07;100.00
68226;BME280;55045;49.410;11.030;2024-02-14T03:25:59;98512.28;;;2.32;100.00
68226;BME280;55045;49.410;11.030;2024-02-14T03:29:04;98502.91;;;2.31;100.00
68226;BME280;55045;49.410;11.030;2024-02-14T03:32:08;98505.53;;;2.25;100.00
68226;BME280;55045;49.410;11.030;2024-02-14T03:35:12;98506.38;;;2.25;100.00
68226;BME280;55045;49.410;11.030;2024-02-14T03:38:24;98499.53;;;2.27;100.00
68226;BME280;55045;49.410;11.030;2024-02-14T03:41:28;98497.84;;;2.23;100.00
68226;BME280;55045;49.410;11.030;2024-02-14T03:44:33;98495.38;;;2.14;100.00
68226;BME280;55045;49.410;11.030;2024-02-14T03:47:40;98503.97;;;2.09;100.00
68226;BME280;55045;49.410;11.030;2024-02-14T03:50:44;98502.28;;;2.01;100.00
68226;BME280;55045;49.410;11.030;2024-02-14T03:53:50;98504.06;;;1.93;100.00
68226;BME280;55045;49.410;11.030;2024-02-14T03:56:54;98509.19;;;1.93;100.00
68226;BME280;55045;49.410;11.030;2024-02-14T04:00:00;98505.78;;;1.91;100.00
68226;BME280;55045;49.410;11.030;2024-02-14T04:03:15;98509.25;;;1.87;100.00
68226;BME280;55045;49.410;11.030;2024-02-14T04:06:19;98508.31;;;1.93;100.00
68226;BME280;55045;49.410;11.030;2024-02-14T04:09:23;98511.75;;;1.90;100.00
68226;BME280;55045;49.410;11.030;2024-02-14T04:12:26;98510.09;;;1.88;100.00
68226;BME280;55045;49.410;11.030;2024-02-14T04:15:32;98510.91;;;1.90;100.00
68226;BME280;55045;49.410;11.030;2024-02-14T04:18:42;98505.78;;;1.91;100.00
68226;BME280;55045;49.410;11.030;2024-02-14T04:21:46;98507.44;;;1.98;100.00
68226;BME280;55045;49.410;11.030;2024-02-14T04:24:50;98497.19;;;2.01;100.00
68226;BME280;55045;49.410;11.030;2024-02-14T04:27:56;98493.78;;;1.99;100.00
68226;BME280;55045;49.410;11.030;2024-02-14T04:34:43;98508.31;;;1.97;100.00
68226;BME280;55045;49.410;11.030;2024-02-14T04:37:47;98510.00;;;1.98;100.00
68226;BME280;55045;49.410;11.030;2024-02-14T04:40:54;98498.78;;;2.13;100.00
68226;BME280;55045;49.410;11.030;2024-02-14T04:43:59;98503.00;;;2.20;100.00
68226;BME280;55045;49.410;11.030;2024-02-14T04:47:03;98508.88;;;2.30;100.00
68226;BME280;55045;49.410;11.030;2024-02-14T04:50:09;98522.59;;;2.26;100.00
68226;BME280;55045;49.410;11.030;2024-02-14T04:53:12;98522.56;;;2.27;100.00
68226;BME280;55045;49.410;11.030;2024-02-14T04:56:16;98466.53;;;1.97;100.00
68226;BME280;55045;49.410;11.030;2024-02-14T04:59:22;98522.47;;;2.38;100.00
68226;BME280;55045;49.410;11.030;2024-02-14T05:02:25;98523.22;;;2.49;100.00
68226;BME280;55045;49.410;11.030;2024-02-14T05:05:31;98522.34;;;2.50;100.00
68226;BME280;55045;49.410;11.030;2024-02-14T05:08:36;98529.13;;;2.54;100.00
68226;BME280;55045;49.410;11.030;2024-02-14T05:11:40;98530.88;;;2.51;100.00
68226;BME280;55045;49.410;11.030;2024-02-14T05:14:43;98523.91;;;2.64;100.00
68226;BME280;55045;49.410;11.030;2024-02-14T05:17:47;98527.25;;;2.72;100.00
68226;BME280;55045;49.410;11.030;2024-02-14T05:20:53;98536.63;;;2.74;100.00
68226;BME280;55045;49.410;11.030;2024-02-14T05:23:56;98532.34;;;2.75;100.00
68226;BME280;55045;49.410;11.030;2024-02-14T05:27:03;98533.19;;;2.77;100.00
68226;BME280;55045;49.410;11.030;2024-02-14T05:30:07;98532.25;;;2.84;100.00
68226;BME280;55045;49.410;11.030;2024-02-14T05:33:26;98532.19;;;2.90;100.00
68226;BME280;55045;49.410;11.030;2024-02-14T05:36:31;98530.44;;;2.92;100.00
68226;BME280;55045;49.410;11.030;2024-02-14T05:39:35;98538.94;;;2.99;100.00
68226;BME280;55045;49.410;11.030;2024-02-14T05:42:38;98532.97;;;2.97;100.00
68226;BME280;55045;49.410;11.030;2024-02-14T05:45:42;98538.22;;;2.87;100.00
68226;BME280;55045;49.410;11.030;2024-02-14T05:48:46;98538.19;;;2.86;100.00
68226;BME280;55045;49.410;11.030;2024-02-14T05:51:52;98539.91;;;2.88;100.00
68226;BME280;55045;49.410;11.030;2024-02-14T05:54:56;98539.81;;;2.98;100.00
68226;BME280;55045;49.410;11.030;2024-02-14T05:57:59;98539.78;;;2.99;100.00
68226;BME280;55045;49.410;11.030;2024-02-14T06:01:05;98536.31;;;3.02;100.00
68226;BME280;55045;49.410;11.030;2024-02-14T06:04:11;98537.22;;;2.99;100.00
68226;BME280;55045;49.410;11.030;2024-02-14T06:07:16;98536.28;;;3.05;100.00
68226;BME280;55045;49.410;11.030;2024-02-14T06:10:20;98541.28;;;3.15;100.00
68226;BME280;55045;49.410;11.030;2024-02-14T06:13:24;98548.09;;;3.18;100.00
68226;BME280;55045;49.410;11.030;2024-02-14T06:16:28;98555.59;;;3.33;100.00
68226;BME280;55045;49.410;11.030;2024-02-14T06:19:34;98548.84;;;3.28;100.00
68226;BME280;55045;49.410;11.030;2024-02-14T06:22:43;98554.84;;;3.25;100.00
68226;BME280;55045;49.410;11.030;2024-02-14T06:25:58;98552.28;;;3.24;100.00
68226;BME280;55045;49.410;11.030;2024-02-14T06:29:02;98557.44;;;3.24;100.00
68226;BME280;55045;49.410;11.030;2024-02-14T06:32:09;98560.75;;;3.32;100.00
68226;BME280;55045;49.410;11.030;2024-02-14T06:35:13;98561.50;;;3.41;100.00
68226;BME280;55045;49.410;11.030;2024-02-14T06:38:19;98564.03;;;3.43;100.00
68226;BME280;55045;49.410;11.030;2024-02-14T06:41:23;98557.13;;;3.50;100.00
68226;BME280;55045;49.410;11.030;2024-02-14T06:44:27;98557.00;;;3.59;100.00
68226;BME280;55045;49.410;11.030;2024-02-14T06:47:31;98557.78;;;3.62;100.00
68226;BME280;55045;49.410;11.030;2024-02-14T06:50:37;98561.28;;;3.58;100.00
68226;BME280;55045;49.410;11.030;2024-02-14T06:53:42;98520.38;;;3.46;100.00
68226;BME280;55045;49.410;11.030;2024-02-14T06:56:46;98555.94;;;3.73;100.00
68226;BME280;55045;49.410;11.030;2024-02-14T06:59:50;98541.44;;;3.71;100.00
68226;BME280;55045;49.410;11.030;2024-02-14T07:02:54;98549.94;;;3.74;100.00
68226;BME280;55045;49.410;11.030;2024-02-14T07:05:59;98567.81;;;3.81;100.00
68226;BME280;55045;49.410;11.030;2024-02-14T07:09:04;98560.78;;;3.93;100.00
68226;BME280;55045;49.410;11.030;2024-02-14T07:12:08;98554.72;;;3.97;100.00
68226;BME280;55045;49.410;11.030;2024-02-14T07:15:12;98553.56;;;4.17;100.00
68226;BME280;55045;49.410;11.030;2024-02-14T07:18:16;98542.38;;;4.22;100.00
68226;BME280;55045;49.410;11.030;2024-02-14T07:21:20;98545.69;;;4.27;100.00
68226;BME280;55045;49.410;11.030;2024-02-14T07:24:25;98541.31;;;4.34;100.00
68226;BME280;55045;49.410;11.030;2024-02-14T07:27:29;98537.78;;;4.41;100.00
68226;BME280;55045;49.410;11.030;2024-02-14T07:30:33;98541.94;;;4.50;100.00
68226;BME280;55045;49.410;11.030;2024-02-14T07:33:40;98547.09;;;4.47;100.00
68226;BME280;55045;49.410;11.030;2024-02-14T07:36:46;98539.31;;;4.51;100.00
68226;BME280;55045;49.410;11.030;2024-02-14T07:39:51;98537.56;;;4.53;100.00
68226;BME280;55045;49.410;11.030;2024-02-14T07:42:55;98541.59;;;4.68;100.00
68226;BME280;55045;49.410;11.030;2024-02-14T07:45:59;98542.31;;;4.75;100.00
68226;BME280;55045;49.410;11.030;2024-02-14T07:49:03;98498.94;;;4.58;100.00
68226;BME280;55045;49.410;11.030;2024-02-14T07:52:07;98554.81;;;4.95;100.00
68226;BME280;55045;49.410;11.030;2024-02-14T07:55:12;98555.66;;;4.95;100.00
68226;BME280;55045;49.410;11.030;2024-02-14T07:58:15;98560.50;;;5.10;100.00
68226;BME280;55045;49.410;11.030;2024-02-14T08:01:19;98566.56;;;5.08;100.00
68226;BME280;55045;49.410;11.030;2024-02-14T08:04:23;98564.75;;;5.13;100.00
68226;BME280;55045;49.410;11.030;2024-02-14T08:07:27;98541.72;;;5.07;100.00
68226;BME280;55045;49.410;11.030;2024-02-14T08:10:32;98561.84;;;5.30;100.00
68226;BME280;55045;49.410;11.030;2024-02-14T08:13:35;98569.47;;;5.34;100.00
68226;BME280;55045;49.410;11.030;2024-02-14T08:16:41;98563.16;;;5.49;100.00
68226;BME280;55045;49.410;11.030;2024-02-14T08:19:47;98562.06;;;5.61;100.00
68226;BME280;55045;49.410;11.030;2024-02-14T08:22:51;98569.56;;;5.70;100.00
68226;BME280;55045;49.410;11.030;2024-02-14T08:25:56;98558.34;;;5.74;100.00
68226;BME280;55045;49.410;11.030;2024-02-14T08:29:00;98565.03;;;5.81;100.00
68226;BME280;55045;49.410;11.030;2024-02-14T08:32:04;98573.44;;;5.89;100.00
68226;BME280;55045;49.410;11.030;2024-02-14T08:35:08;98572.53;;;5.93;100.00
68226;BME280;55045;49.410;11.030;2024-02-14T08:38:15;98585.34;;;5.96;100.00
68226;BME280;55045;49.410;11.030;2024-02-14T08:41:21;98566.56;;;5.91;100.00
68226;BME280;55045;49.410;11.030;2024-02-14T08:44:27;98581.69;;;6.06;100.00
68226;BME280;55045;49.410;11.030;2024-02-14T08:47:31;98560.31;;;6.03;100.00
68226;BME280;55045;49.410;11.030;2024-02-14T08:50:38;98570.38;;;6.14;100.00
68226;BME280;55045;49.410;11.030;2024-02-14T08:53:42;98560.72;;;6.22;100.00
68226;BME280;55045;49.410;11.030;2024-02-14T08:56:49;98567.50;;;6.26;100.00
68226;BME280;55045;49.410;11.030;2024-02-14T08:59:55;98557.03;;;6.32;100.00
68226;BME280;55045;49.410;11.030;2024-02-14T09:03:01;98572.22;;;6.44;100.00
68226;BME280;55045;49.410;11.030;2024-02-14T09:06:06;98558.53;;;6.41;100.00
68226;BME280;55045;49.410;11.030;2024-02-14T09:09:10;98571.81;;;6.59;100.00
68226;BME280;55045;49.410;11.030;2024-02-14T09:12:17;98580.31;;;6.64;100.00
68226;BME280;55045;49.410;11.030;2024-02-14T09:15:23;98567.38;;;6.66;100.00
68226;BME280;55045;49.410;11.030;2024-02-14T09:18:29;98560.31;;;6.73;100.00
68226;BME280;55045;49.410;11.030;2024-02-14T09:21:34;98567.06;;;6.78;100.00
68226;BME280;55045;49.410;11.030;2024-02-14T09:24:41;98571.19;;;6.85;100.00
68226;BME280;55045;49.410;11.030;2024-02-14T09:27:48;98562.41;;;6.91;100.00
68226;BME280;55045;49.410;11.030;2024-02-14T09:30:52;98558.00;;;6.94;100.00
68226;BME280;55045;49.410;11.030;2024-02-14T09:33:59;98552.66;;;7.02;100.00
68226;BME280;55045;49.410;11.030;2024-02-14T09:37:03;98562.56;;;7.17;100.00
68226;BME280;55045;49.410;11.030;2024-02-14T09:40:10;98549.72;;;7.16;100.00
68226;BME280;55045;49.410;11.030;2024-02-14T09:43:21;98566.75;;;7.21;100.00
68226;BME280;55045;49.410;11.030;2024-02-14T09:46:28;98568.53;;;7.19;100.00
68226;BME280;55045;49.410;11.030;2024-02-14T09:49:34;98560.41;;;7.33;100.00
68226;BME280;55045;49.410;11.030;2024-02-14T09:52:39;98558.34;;;7.44;100.00
68226;BME280;55045;49.410;11.030;2024-02-14T09:55:45;98568.69;;;7.44;100.00
68226;BME280;55045;49.410;11.030;2024-02-14T09:58:50;98575.19;;;7.58;100.00
68226;BME280;55045;49.410;11.030;2024-02-14T10:02:00;98571.31;;;7.72;100.00
68226;BME280;55045;49.410;11.030;2024-02-14T10:05:04;98574.75;;;7.73;100.00
68226;BME280;55045;49.410;11.030;2024-02-14T10:08:10;98576.38;;;7.75;100.00
68226;BME280;55045;49.410;11.030;2024-02-14T10:11:17;98575.22;;;7.86;100.00
68226;BME280;55045;49.410;11.030;2024-02-14T10:14:25;98574.19;;;7.91;100.00
68226;BME280;55045;49.410;11.030;2024-02-14T10:17:28;98567.81;;;8.03;100.00
68226;BME280;55045;49.410;11.030;2024-02-14T10:20:32;98581.06;;;8.20;100.00
68226;BME280;55045;49.410;11.030;2024-02-14T10:23:39;98574.75;;;8.29;100.00
68226;BME280;55045;49.410;11.030;2024-02-14T10:26:45;98569.41;;;8.35;100.00
68226;BME280;55045;49.410;11.030;2024-02-14T10:29:50;98573.59;;;8.39;100.00
68226;BME280;55045;49.410;11.030;2024-02-14T10:34:40;98576.63;;;8.52;100.00
68226;BME280;55045;49.410;11.030;2024-02-14T10:37:48;98529.56;;;8.42;100.00
68226;BME280;55045;49.410;11.030;2024-02-14T10:40:55;98564.31;;;8.85;100.00
68226;BME280;55045;49.410;11.030;2024-02-14T10:44:02;98571.41;;;9.05;100.00
68226;BME280;55045;49.410;11.030;2024-02-14T10:47:10;98571.75;;;9.19;100.00
68226;BME280;55045;49.410;11.030;2024-02-14T10:50:21;98577.50;;;9.27;100.00
68226;BME280;55045;49.410;11.030;2024-02-14T10:53:29;98565.25;;;9.32;100.00
68226;BME280;55045;49.410;11.030;2024-02-14T10:56:39;98562.34;;;9.41;100.00
68226;BME280;55045;49.410;11.030;2024-02-14T10:59:45;98561.31;;;9.45;100.00
68226;BME280;55045;49.410;11.030;2024-02-14T11:02:53;98549.41;;;9.40;100.00
68226;BME280;55045;49.410;11.030;2024-02-14T11:06:01;98552.44;;;9.52;100.00
68226;BME280;55045;49.410;11.030;2024-02-14T11:09:11;98550.44;;;9.59;100.00
68226;BME280;55045;49.410;11.030;2024-02-14T11:12:22;98555.22;;;9.70;100.00
68226;BME280;55045;49.410;11.030;2024-02-14T11:15:27;98552.28;;;9.79;100.00
68226;BME280;55045;49.410;11.030;2024-02-14T11:18:33;98556.94;;;9.93;100.00
68226;BME280;55045;49.410;11.030;2024-02-14T11:21:41;98559.00;;;10.06;100.00
68226;BME280;55045;49.410;11.030;2024-02-14T11:24:46;98557.59;;;10.20;100.00
68226;BME280;55045;49.410;11.030;2024-02-14T11:27:50;98556.69;;;10.21;100.00
68226;BME280;55045;49.410;11.030;2024-02-14T11:31:00;98553.47;;;10.37;100.00
68226;BME280;55045;49.410;11.030;2024-02-14T11:34:11;98549.53;;;10.49;100.00
68226;BME280;55045;49.410;11.030;2024-02-14T11:37:19;98546.63;;;10.57;100.00
68226;BME280;55045;49.410;11.030;2024-02-14T11:40:22;98536.41;;;10.74;100.00
68226;BME280;55045;49.410;11.030;2024-02-14T11:43:28;98529.94;;;10.83;100.00
68226;BME280;55045;49.410;11.030;2024-02-14T11:46:33;98528.41;;;10.99;100.00
68226;BME280;55045;49.410;11.030;2024-02-14T11:49:37;98531.44;;;11.09;100.00
68226;BME280;55045;49.410;11.030;2024-02-14T11:52:43;98525.66;;;11.02;100.00
68226;BME280;55045;49.410;11.030;2024-02-14T11:55:49;98530.84;;;11.02;100.00
68226;BME280;55045;49.410;11.030;2024-02-14T11:58:55;98527.22;;;11.06;100.00
68226;BME280;55045;49.410;11.030;2024-02-14T12:02:00;98523.75;;;11.26;100.00
68226;BME280;55045;49.410;11.030;2024-02-14T12:05:06;98520.69;;;11.37;100.00
68226;BME280;55045;49.410;11.030;2024-02-14T12:08:11;98525.88;;;11.37;100.00
68226;BME280;55045;49.410;11.030;2024-02-14T12:11:15;98529.31;;;11.37;100.00
68226;BME280;55045;49.410;11.030;2024-02-14T12:14:21;98538.97;;;11.34;100.00
68226;BME280;55045;49.410;11.030;2024-02-14T12:17:27;98536.25;;;11.37;100.00
68226;BME280;55045;49.410;11.030;2024-02-14T12:20:35;98539.84;;;11.34;100.00
68226;BME280;55045;49.410;11.030;2024-02-14T12:23:40;98529.78;;;11.27;100.00
68226;BME280;55045;49.410;11.030;2024-02-14T12:26:44;98536.59;;;11.29;100.00
68226;BME280;55045;49.410;11.030;2024-02-14T12:29:51;98534.31;;;11.21;100.00
68226;BME280;55045;49.410;11.030;2024-02-14T12:33:00;98532.31;;;11.28;100.00
68226;BME280;55045;49.410;11.030;2024-02-14T12:36:12;98527.69;;;11.35;100.00
68226;BME280;55045;49.410;11.030;2024-02-14T12:39:18;98531.00;;;11.38;100.00
68226;BME280;55045;49.410;11.030;2024-02-14T12:42:23;98534.44;;;11.39;100.00
68226;BME280;55045;49.410;11.030;2024-02-14T12:45:29;98544.06;;;11.37;100.00
68226;BME280;55045;49.410;11.030;2024-02-14T12:48:33;98538.13;;;11.33;100.00
68226;BME280;55045;49.410;11.030;2024-02-14T12:51:37;98551.06;;;11.35;100.00
68226;BME280;55045;49.410;11.030;2024-02-14T12:54:43;98539.03;;;11.32;100.00
68226;BME280;55045;49.410;11.030;2024-02-14T12:57:51;98544.06;;;11.37;100.00
68226;BME280;55045;49.410;11.030;2024-02-14T13:00:55;98539.78;;;11.36;100.00
68226;BME280;55045;49.410;11.030;2024-02-14T13:03:59;98543.13;;;11.38;100.00
68226;BME280;55045;49.410;11.030;2024-02-14T13:07:08;98543.72;;;11.44;100.00
68226;BME280;55045;49.410;11.030;2024-02-14T13:10:16;98540.06;;;11.48;100.00
68226;BME280;55045;49.410;11.030;2024-02-14T13:13:20;98530.09;;;11.58;100.00
68226;BME280;55045;49.410;11.030;2024-02-14T13:16:24;98532.53;;;11.61;100.00
68226;BME280;55045;49.410;11.030;2024-02-14T13:19:28;98535.63;;;11.69;100.00
68226;BME280;55045;49.410;11.030;2024-02-14T13:22:32;98509.72;;;11.68;100.00
68226;BME280;55045;49.410;11.030;2024-02-14T13:25:39;98518.16;;;11.92;100.00
68226;BME280;55045;49.410;11.030;2024-02-14T13:28:43;98522.16;;;11.99;100.00
68226;BME280;55045;49.410;11.030;2024-02-14T13:31:47;98522.00;;;12.02;100.00
68226;BME280;55045;49.410;11.030;2024-02-14T13:34:53;98508.75;;;11.89;100.00
68226;BME280;55045;49.410;11.030;2024-02-14T13:37:59;98529.97;;;11.99;100.00
68226;BME280;55045;49.410;11.030;2024-02-14T13:41:04;98533.47;;;11.98;100.00
68226;BME280;55045;49.410;11.030;2024-02-14T13:44:08;98535.31;;;11.96;100.00
68226;BME280;55045;49.410;11.030;2024-02-14T13:47:17;98549.66;;;11.86;100.00
68226;BME280;55045;49.410;11.030;2024-02-14T13:50:22;98552.84;;;11.72;100.00
68226;BME280;55045;49.410;11.030;2024-02-14T13:53:25;98560.34;;;11.59;100.00
68226;BME280;55045;49.410;11.030;2024-02-14T13:56:33;98559.31;;;11.44;100.00
68226;BME280;55045;49.410;11.030;2024-02-14T13:59:39;98552.59;;;11.39;100.00
68226;BME280;55045;49.410;11.030;2024-02-14T14:02:44;98549.44;;;11.32;100.00
68226;BME280;55045;49.410;11.030;2024-02-14T14:05:48;98562.50;;;11.31;100.00
68226;BME280;55045;49.410;11.030;2024-02-14T14:08:52;98554.97;;;11.24;100.00
68226;BME280;55045;49.410;11.030;2024-02-14T14:11:59;98558.34;;;11.27;100.00
68226;BME280;55045;49.410;11.030;2024-02-14T14:15:07;98559.75;;;11.34;100.00
68226;BME280;55045;49.410;11.030;2024-02-14T14:18:18;98557.28;;;11.31;100.00
68226;BME280;55045;49.410;11.030;2024-02-14T14:21:22;98557.09;;;11.35;100.00
68226;BME280;55045;49.410;11.030;2024-02-14T14:24:27;98558.88;;;11.35;100.00
68226;BME280;55045;49.410;11.030;2024-02-14T14:27:35;98559.97;;;11.29;100.00
68226;BME280;55045;49.410;11.030;2024-02-14T14:30:39;98538.91;;;11.16;100.00
68226;BME280;55045;49.410;11.030;2024-02-14T14:33:42;98548.59;;;11.32;100.00
68226;BME280;55045;49.410;11.030;2024-02-14T14:36:46;98552.25;;;11.28;100.00
68226;BME280;55045;49.410;11.030;2024-02-14T14:39:52;98549.13;;;11.19;100.00
68226;BME280;55045;49.410;11.030;2024-02-14T14:42:59;98547.44;;;11.18;100.00
68226;BME280;55045;49.410;11.030;2024-02-14T14:46:03;98555.25;;;11.18;100.00
68226;BME280;55045;49.410;11.030;2024-02-14T14:49:09;98544.94;;;11.17;100.00
68226;BME280;55045;49.410;11.030;2024-02-14T14:52:13;98538.81;;;11.18;100.00
68226;BME280;55045;49.410;11.030;2024-02-14T14:55:17;98535.56;;;11.13;100.00
68226;BME280;55045;49.410;11.030;2024-02-14T14:58:22;98540.97;;;11.08;100.00
68226;BME280;55045;49.410;11.030;2024-02-14T15:01:30;98536.47;;;11.12;100.00
68226;BME280;55045;49.410;11.030;2024-02-14T15:04:36;98537.22;;;11.15;100.00
68226;BME280;55045;49.410;11.030;2024-02-14T15:07:42;98537.22;;;11.15;100.00
68226;BME280;55045;49.410;11.030;2024-02-14T15:10:45;98536.31;;;11.16;100.00
68226;BME280;55045;49.410;11.030;2024-02-14T15:13:51;98532.94;;;11.14;100.00
68226;BME280;55045;49.410;11.030;2024-02-14T15:16:54;98530.53;;;11.10;100.00
68226;BME280;55045;49.410;11.030;2024-02-14T15:19:58;98533.69;;;11.16;100.00
68226;BME280;55045;49.410;11.030;2024-02-14T15:23:02;98536.56;;;11.10;100.00
68226;BME280;55045;49.410;11.030;2024-02-14T15:26:06;98532.19;;;11.11;100.00
68226;BME280;55045;49.410;11.030;2024-02-14T15:29:16;98492.66;;;10.85;100.00
68226;BME280;55045;49.410;11.030;2024-02-14T15:32:37;98527.22;;;11.06;100.00
68226;BME280;55045;49.410;11.030;2024-02-14T15:36:02;98529.75;;;11.08;100.00
68226;BME280;55045;49.410;11.030;2024-02-14T15:39:07;98532.41;;;11.06;100.00
68226;BME280;55045;49.410;11.030;2024-02-14T15:42:13;98536.56;;;11.10;100.00
68226;BME280;55045;49.410;11.030;2024-02-14T15:45:20;98540.06;;;11.09;100.00
68226;BME280;55045;49.410;11.030;2024-02-14T15:48:26;98539.38;;;11.06;100.00
68226;BME280;55045;49.410;11.030;2024-02-14T15:51:33;98538.44;;;11.07;100.00
68226;BME280;55045;49.410;11.030;2024-02-14T15:54:37;98532.28;;;11.09;100.00
68226;BME280;55045;49.410;11.030;2024-02-14T15:57:46;98520.03;;;10.92;100.00
68226;BME280;55045;49.410;11.030;2024-02-14T16:00:53;98530.06;;;11.00;100.00
68226;BME280;55045;49.410;11.030;2024-02-14T16:04:05;98518.94;;;10.98;100.00
68226;BME280;55045;49.410;11.030;2024-02-14T16:07:17;98527.88;;;10.91;100.00
68226;BME280;55045;49.410;11.030;2024-02-14T16:16:22;98533.81;;;10.74;100.00
68226;BME280;55045;49.410;11.030;2024-02-14T16:21:05;98542.75;;;10.67;100.00
68226;BME280;55045;49.410;11.030;2024-02-14T16:28:38;98536.97;;;10.81;100.00